createdAt,value
2019-01-08T00:00:03.778Z,42.13
2019-01-08T00:03:07.218Z,38.37
2019-01-08T00:06:07.525Z,42.97
2019-01-08T00:09:07.597Z,41.63
2019-01-08T00:12:06.953Z,40.63
2019-01-08T00:15:06.915Z,41.27
2019-01-08T00:18:07.178Z,43.83
2019-01-08T00:20:56.067Z,42.13
2019-01-08T00:23:55.459Z,44.67
2019-01-08T00:26:35.246Z,39.67
2019-01-08T00:29:34.864Z,41.53
2019-01-08T00:32:13.802Z,41.10
2019-01-08T00:35:14.132Z,41.23
2019-01-08T00:37:41.803Z,43.60
2019-01-08T00:40:21.487Z,41.40
2019-01-08T00:43:20.929Z,42.43
2019-01-08T00:45:48.787Z,43.57
2019-01-08T00:48:48.478Z,38.33
2019-01-08T00:51:16.175Z,42.53
2019-01-08T00:53:56.206Z,40.77
2019-01-08T00:56:55.935Z,41.13
2019-01-08T00:59:35.692Z,41.00
2019-01-08T01:02:35.439Z,39.63
2019-01-08T01:05:22.536Z,41.73
2019-01-08T01:07:50.160Z,42.67
2019-01-08T01:10:49.613Z,42.27
2019-01-08T01:13:17.269Z,41.93
2019-01-08T01:16:17.095Z,41.70
2019-01-08T01:19:17.141Z,39.23
2019-01-08T01:25:17.504Z,45.13
2019-01-08T01:28:17.755Z,42.97
2019-01-08T01:30:45.432Z,42.23
2019-01-08T01:36:21.886Z,44.00
2019-01-08T01:41:51.129Z,42.60
2019-01-08T01:44:50.502Z,43.93
2019-01-08T01:47:29.626Z,42.07
2019-01-08T01:49:57.620Z,44.53
2019-01-08T01:52:46.553Z,41.47
2019-01-08T01:55:46.045Z,44.50
2019-01-08T01:58:46.339Z,40.50
2019-01-08T02:01:46.410Z,42.17
2019-01-08T02:04:25.464Z,41.77
2019-01-08T02:07:25.640Z,41.80
2019-01-08T02:10:05.526Z,44.33
2019-01-08T02:13:05.099Z,44.83
2019-01-08T02:18:46.614Z,39.37
2019-01-08T02:21:46.158Z,44.30
2019-01-08T02:24:46.437Z,38.00
2019-01-08T02:27:46.682Z,39.30
2019-01-08T02:37:17.755Z,39.03
2019-01-08T02:40:18.111Z,42.43
2019-01-08T02:43:18.477Z,43.80
2019-01-08T02:46:18.924Z,44.37
2019-01-08T02:49:19.297Z,45.87
2019-01-08T02:52:19.595Z,44.83
2019-01-08T02:54:59.608Z,46.57
2019-01-08T02:57:48.718Z,43.93
2019-01-08T03:03:38.430Z,46.77
2019-01-08T03:09:39.901Z,44.50
2019-01-08T03:12:41.331Z,45.87
2019-01-08T03:18:56.152Z,43.87
2019-01-08T03:21:56.417Z,44.50
2019-01-08T03:24:55.873Z,49.87
2019-01-08T03:27:56.236Z,45.10
2019-01-08T03:30:56.355Z,49.70
2019-01-08T03:33:56.236Z,46.53
2019-01-08T03:36:57.026Z,50.83
2019-01-08T03:39:57.265Z,52.10
2019-01-08T03:42:44.542Z,50.43
2019-01-08T03:45:44.507Z,52.30
2019-01-08T03:48:45.972Z,51.33
2019-01-08T03:51:46.103Z,49.70
2019-01-08T03:54:46.246Z,49.30
2019-01-08T03:57:45.686Z,53.07
2019-01-08T04:00:45.917Z,52.70
2019-01-08T04:03:45.959Z,50.37
2019-01-08T04:06:46.415Z,49.93
2019-01-08T04:09:27.183Z,49.10
2019-01-08T04:12:27.226Z,52.53
2019-01-08T04:15:14.506Z,51.53
2019-01-08T04:24:19.791Z,54.93
2019-01-08T04:30:21.305Z,49.40
2019-01-08T04:36:22.938Z,49.33
2019-01-08T04:48:27.718Z,50.50
2019-01-08T04:51:27.947Z,48.00
2019-01-08T04:56:58.247Z,46.10
2019-01-08T04:59:59.035Z,47.80
2019-01-08T05:05:30.414Z,43.33
2019-01-08T05:11:32.972Z,47.90
2019-01-08T05:14:33.271Z,45.23
2019-01-08T05:17:33.551Z,45.20
2019-01-08T05:20:33.536Z,44.77
2019-01-08T05:23:01.215Z,45.67
2019-01-08T05:25:40.667Z,45.53
2019-01-08T05:28:22.288Z,44.20
2019-01-08T05:31:03.919Z,46.03
2019-01-08T05:33:44.146Z,44.50
2019-01-08T05:39:44.654Z,49.03
2019-01-08T05:42:44.138Z,47.60
2019-01-08T05:45:44.274Z,49.60
2019-01-08T05:48:33.383Z,47.07
2019-01-08T05:51:32.787Z,46.43
2019-01-08T05:54:32.776Z,48.63
2019-01-08T05:57:00.667Z,47.93
2019-01-08T06:00:00.924Z,48.37
2019-01-08T06:02:40.723Z,49.73
2019-01-08T06:05:08.699Z,53.10
2019-01-08T06:08:08.481Z,54.03
2019-01-08T06:10:36.145Z,49.17
2019-01-08T06:13:35.661Z,49.80
2019-01-08T06:16:03.270Z,48.50
2019-01-08T06:18:53.586Z,53.27
2019-01-08T06:21:53.889Z,52.40
2019-01-08T06:24:33.497Z,48.50
2019-01-08T06:27:33.113Z,49.77
2019-01-08T06:30:33.338Z,49.80
2019-01-08T06:33:32.795Z,48.80
2019-01-08T06:36:33.063Z,47.77
2019-01-08T06:42:37.526Z,48.83
2019-01-08T06:45:37.742Z,50.57
2019-01-08T06:48:05.551Z,52.33
2019-01-08T06:51:05.904Z,50.17
2019-01-08T06:54:05.911Z,51.10
2019-01-08T06:57:06.124Z,56.57
2019-01-08T07:00:06.380Z,50.70
2019-01-08T07:03:06.564Z,55.70
2019-01-08T07:05:45.579Z,53.30
2019-01-08T07:08:44.927Z,48.30
2019-01-08T07:11:44.877Z,50.23
2019-01-08T07:17:22.095Z,52.80
2019-01-08T07:19:50.153Z,47.53
2019-01-08T07:22:49.759Z,48.43
2019-01-08T07:25:17.443Z,44.07
2019-01-08T07:28:06.352Z,48.77
2019-01-08T07:30:41.268Z,46.30
2019-01-08T07:36:18.253Z,46.47
2019-01-08T07:39:18.348Z,42.77
2019-01-08T07:42:05.422Z,40.97
2019-01-08T07:45:05.269Z,44.80
2019-01-08T07:47:33.031Z,42.33
2019-01-08T07:52:41.248Z,40.20
2019-01-08T07:55:41.191Z,40.73
2019-01-08T07:58:41.393Z,44.30
2019-01-08T08:01:09.214Z,44.17
2019-01-08T08:04:10.429Z,45.37
2019-01-08T08:06:38.129Z,40.13
2019-01-08T08:09:25.310Z,42.70
2019-01-08T08:15:19.029Z,43.97
2019-01-08T08:18:19.191Z,41.37
2019-01-08T08:21:19.276Z,43.40
2019-01-08T08:27:11.451Z,39.83
2019-01-08T08:30:10.929Z,44.03
2019-01-08T08:33:11.370Z,49.40
2019-01-08T08:36:00.387Z,50.00
2019-01-08T08:39:00.530Z,48.87
2019-01-08T08:41:28.497Z,50.83
2019-01-08T08:44:17.472Z,46.73
2019-01-08T08:47:17.654Z,54.97
2019-01-08T08:49:45.287Z,50.80
2019-01-08T08:52:32.788Z,48.00
2019-01-08T08:55:02.292Z,47.47
2019-01-08T08:58:02.071Z,45.60
2019-01-08T09:00:43.630Z,50.03
2019-01-08T09:03:43.305Z,50.63
2019-01-08T09:09:32.649Z,52.50
2019-01-08T09:12:21.627Z,52.43
2019-01-08T09:15:24.469Z,50.60
2019-01-08T09:18:11.857Z,55.37
2019-01-08T09:21:12.042Z,49.13
2019-01-08T09:24:12.480Z,49.10
2019-01-08T09:27:12.577Z,48.27
2019-01-08T09:32:41.766Z,52.07
2019-01-08T09:35:23.601Z,50.17
2019-01-08T09:38:22.986Z,51.50
2019-01-08T09:40:50.788Z,51.73
2019-01-08T09:43:52.103Z,51.20
2019-01-08T09:46:39.199Z,50.73
2019-01-08T09:49:28.167Z,45.37
2019-01-08T09:52:27.552Z,50.33
2019-01-08T09:58:32.651Z,48.80
2019-01-08T10:01:00.374Z,55.70
2019-01-08T10:04:00.441Z,51.83
2019-01-08T10:06:28.332Z,55.00
2019-01-08T10:09:27.694Z,52.17
2019-01-08T10:14:59.220Z,52.20
2019-01-08T10:17:58.501Z,54.97
2019-01-08T10:20:58.670Z,53.73
2019-01-08T10:23:58.738Z,56.63
2019-01-08T10:26:58.940Z,50.37
2019-01-08T10:33:00.359Z,52.80
2019-01-08T10:35:39.377Z,55.07
2019-01-08T10:41:19.760Z,54.70
2019-01-08T10:44:19.527Z,53.97
2019-01-08T10:47:18.840Z,56.93
2019-01-08T10:49:58.015Z,48.37
2019-01-08T10:59:07.690Z,52.87
2019-01-08T11:05:06.495Z,48.73
2019-01-08T11:08:06.724Z,51.33
2019-01-08T11:11:07.014Z,53.87
2019-01-08T11:14:06.466Z,53.80
2019-01-08T11:16:46.101Z,53.40
2019-01-08T11:19:48.661Z,50.10
2019-01-08T11:22:47.999Z,54.83
2019-01-08T11:25:37.010Z,50.80
2019-01-08T11:28:50.660Z,52.80
2019-01-08T11:31:50.899Z,51.30
2019-01-08T11:34:29.965Z,53.07
2019-01-08T11:39:59.376Z,55.93
2019-01-08T11:43:01.251Z,60.47
2019-01-08T11:46:01.451Z,56.63
2019-01-08T11:49:01.761Z,54.93
2019-01-08T11:51:43.274Z,58.67
2019-01-08T11:54:43.078Z,54.03
2019-01-08T11:57:42.499Z,57.77
2019-01-08T12:00:30.276Z,56.07
2019-01-08T12:03:30.622Z,53.10
2019-01-08T12:08:49.723Z,52.40
2019-01-08T12:11:49.861Z,60.90
2019-01-08T12:14:17.719Z,56.20
2019-01-08T12:16:56.922Z,61.70
2019-01-08T12:19:57.323Z,60.27
2019-01-08T12:22:57.379Z,57.70
2019-01-08T12:25:57.515Z,55.77
2019-01-08T12:28:25.462Z,60.53
2019-01-08T12:34:27.076Z,58.07
2019-01-08T12:40:10.855Z,57.47
2019-01-08T12:43:11.108Z,58.10
2019-01-08T12:49:11.022Z,53.03
2019-01-08T12:54:51.610Z,52.07
2019-01-08T12:57:40.644Z,50.73
2019-01-08T13:00:09.167Z,54.67
2019-01-08T13:03:09.223Z,57.17
2019-01-08T13:05:49.014Z,49.57
2019-01-08T13:08:48.681Z,50.00
2019-01-08T13:11:48.021Z,49.33
2019-01-08T13:14:48.200Z,50.83
2019-01-08T13:17:48.468Z,48.60
2019-01-08T13:20:16.331Z,46.07
2019-01-08T13:23:16.757Z,47.93
2019-01-08T13:28:47.224Z,48.93
2019-01-08T13:31:15.024Z,47.63
2019-01-08T13:36:43.815Z,47.93
2019-01-08T13:39:32.953Z,50.63
2019-01-08T13:42:12.143Z,48.63
2019-01-08T13:44:39.894Z,44.83
2019-01-08T13:50:19.470Z,51.37
2019-01-08T13:53:19.657Z,50.33
2019-01-08T13:55:47.495Z,49.80
2019-01-08T13:58:26.688Z,47.77
2019-01-08T14:00:54.423Z,51.30
2019-01-08T14:03:36.463Z,49.23
2019-01-08T14:06:15.678Z,51.73
2019-01-08T14:08:55.246Z,47.87
2019-01-08T14:11:44.353Z,48.47
2019-01-08T14:14:33.253Z,45.97
2019-01-08T14:20:02.415Z,88.53
2019-01-08T14:25:13.648Z,72.33
2019-01-08T14:28:13.769Z,65.50
2019-01-08T14:31:13.775Z,52.87
2019-01-08T14:33:41.522Z,53.20
2019-01-08T14:36:09.184Z,54.43
2019-01-08T14:38:36.773Z,51.43
2019-01-08T14:41:04.464Z,53.57
2019-01-08T14:43:32.060Z,57.30
2019-01-08T14:45:59.756Z,57.63
2019-01-08T14:48:27.485Z,55.67
2019-01-08T14:51:07.745Z,57.53
2019-01-08T14:53:35.534Z,57.47
2019-01-08T14:56:03.427Z,60.73
2019-01-08T14:58:31.266Z,58.20
2019-01-08T15:01:31.446Z,56.37
2019-01-08T15:04:10.778Z,52.00
2019-01-08T15:06:38.541Z,59.30
2019-01-08T15:09:38.848Z,53.97
2019-01-08T15:12:06.591Z,53.17
2019-01-08T15:15:06.156Z,56.10
2019-01-08T15:17:33.929Z,56.03
2019-01-08T15:20:28.001Z,56.67
2019-01-08T15:23:27.884Z,55.07
2019-01-08T15:26:27.209Z,52.77
2019-01-08T15:32:28.780Z,50.50
2019-01-08T15:38:19.334Z,60.20
2019-01-08T15:44:20.895Z,51.83
2019-01-08T15:53:24.608Z,55.07
2019-01-08T15:59:13.426Z,53.40
2019-01-08T16:02:13.444Z,55.53
2019-01-08T16:05:13.760Z,54.80
2019-01-08T16:11:04.019Z,56.37
2019-01-08T16:14:03.809Z,54.50
2019-01-08T16:17:04.072Z,57.17
2019-01-08T16:19:52.995Z,57.20
2019-01-08T16:22:53.283Z,60.13
2019-01-08T16:25:52.472Z,60.43
2019-01-08T16:28:52.691Z,56.03
2019-01-08T16:31:52.839Z,53.60
2019-01-08T16:34:53.125Z,52.67
2019-01-08T16:37:53.267Z,50.97
2019-01-08T16:40:21.007Z,53.47
2019-01-08T16:43:20.606Z,60.17
2019-01-08T16:45:48.358Z,54.43
2019-01-08T16:48:48.714Z,54.47
2019-01-08T16:51:16.574Z,65.43
2019-01-08T16:54:10.300Z,62.40
2019-01-08T16:56:59.401Z,61.63
2019-01-08T16:59:40.019Z,63.10
2019-01-08T17:02:07.670Z,69.23
2019-01-08T17:04:56.575Z,71.47
2019-01-08T17:07:56.472Z,68.20
2019-01-08T17:10:24.372Z,67.50
2019-01-08T17:13:04.401Z,78.50
2019-01-08T17:18:35.005Z,81.23
2019-01-08T17:21:34.565Z,86.80
2019-01-08T17:24:34.665Z,73.90
2019-01-08T17:27:02.395Z,69.63
2019-01-08T17:32:38.592Z,95.93
2019-01-08T17:35:37.824Z,73.27
2019-01-08T17:38:39.318Z,83.37
2019-01-08T17:41:07.095Z,73.17
2019-01-08T17:44:06.503Z,80.33
2019-01-08T17:47:06.773Z,66.37
2019-01-08T17:53:08.024Z,64.57
2019-01-08T17:55:53.835Z,70.63
2019-01-08T17:58:33.789Z,63.53
2019-01-08T18:01:25.367Z,71.70
2019-01-08T18:13:38.560Z,61.67
2019-01-08T18:16:17.662Z,71.80
2019-01-08T18:25:10.023Z,55.93
2019-01-08T18:27:49.079Z,56.83
2019-01-08T18:33:51.708Z,50.80
2019-01-08T18:36:41.105Z,49.53
2019-01-08T18:39:30.153Z,49.73
2019-01-08T18:45:32.009Z,54.07
2019-01-08T18:48:32.331Z,50.70
2019-01-08T18:51:12.829Z,53.57
2019-01-08T18:54:12.418Z,50.90
2019-01-08T18:57:13.862Z,51.30
2019-01-08T18:59:53.617Z,53.60
2019-01-08T19:02:53.159Z,57.07
2019-01-08T19:05:53.365Z,55.90
2019-01-08T19:08:53.561Z,52.20
2019-01-08T19:15:04.580Z,51.87
2019-01-08T19:17:32.577Z,52.30
2019-01-08T19:20:32.331Z,57.97
2019-01-08T19:23:00.117Z,54.70
2019-01-08T19:25:27.869Z,56.03
2019-01-08T19:28:27.426Z,58.10
2019-01-08T19:31:26.776Z,58.00
2019-01-08T19:34:15.904Z,58.33
2019-01-08T19:36:55.190Z,64.27
2019-01-08T19:39:55.422Z,59.80
2019-01-08T19:42:23.196Z,59.90
2019-01-08T19:45:23.444Z,62.03
2019-01-08T19:47:51.371Z,60.80
2019-01-08T19:50:50.978Z,57.23
2019-01-08T19:53:39.657Z,58.27
2019-01-08T19:56:18.768Z,57.43
2019-01-08T19:58:57.807Z,52.47
2019-01-08T20:01:46.795Z,54.80
2019-01-08T20:04:46.448Z,52.57
2019-01-08T20:07:27.178Z,50.80
2019-01-08T20:10:26.681Z,46.87
2019-01-08T20:18:52.138Z,43.53
2019-01-08T20:21:52.079Z,43.13
2019-01-08T20:24:19.864Z,45.60
2019-01-08T20:27:20.260Z,43.13
2019-01-08T20:29:48.094Z,48.60
2019-01-08T20:32:27.227Z,50.33
2019-01-08T20:34:54.915Z,54.23
2019-01-08T20:37:22.669Z,49.50
2019-01-08T20:40:22.871Z,60.17
2019-01-08T20:43:22.910Z,45.03
2019-01-08T20:46:23.057Z,49.53
2019-01-08T20:49:22.356Z,47.67
2019-01-08T20:51:50.033Z,42.57
2019-01-08T20:54:49.566Z,48.80
2019-01-08T20:57:17.283Z,46.53
2019-01-08T21:00:17.180Z,48.67
2019-01-08T21:03:05.284Z,45.87
2019-01-08T21:09:25.829Z,53.63
2019-01-08T21:15:04.188Z,77.70
2019-01-08T21:17:44.248Z,62.60
2019-01-08T21:23:18.556Z,56.30
2019-01-08T21:28:47.552Z,48.30
2019-01-08T21:31:26.496Z,49.03
2019-01-08T21:34:15.481Z,51.60
2019-01-08T21:37:04.376Z,58.43
2019-01-08T21:40:04.719Z,54.80
2019-01-08T21:43:04.077Z,63.70
2019-01-08T21:46:04.025Z,62.70
2019-01-08T21:48:43.109Z,62.33
2019-01-08T21:51:44.935Z,56.63
2019-01-08T21:54:45.111Z,55.07
2019-01-08T21:57:32.363Z,59.40
2019-01-08T22:00:13.485Z,55.80
2019-01-08T22:03:21.862Z,57.83
2019-01-08T22:06:22.560Z,52.70
2019-01-08T22:09:11.556Z,54.83
2019-01-08T22:11:58.742Z,57.97
2019-01-08T22:14:40.199Z,49.97
2019-01-08T22:17:07.893Z,50.27
2019-01-08T22:19:36.120Z,51.27
2019-01-08T22:22:52.361Z,50.37
2019-01-08T22:26:06.396Z,54.93
2019-01-08T22:28:34.040Z,50.93
2019-01-08T22:34:02.464Z,50.03
2019-01-08T22:37:02.700Z,52.27
2019-01-08T22:39:30.407Z,49.03
2019-01-08T22:42:24.400Z,50.43
2019-01-08T22:45:13.346Z,46.90
2019-01-08T22:47:41.042Z,44.43
2019-01-08T22:50:41.253Z,47.80
2019-01-08T22:53:08.945Z,48.80
2019-01-08T22:58:37.806Z,51.23
2019-01-08T23:01:25.056Z,46.00
2019-01-08T23:04:14.077Z,51.70
2019-01-08T23:07:07.569Z,46.80
2019-01-08T23:10:07.205Z,44.10
2019-01-08T23:13:07.486Z,45.43
2019-01-08T23:18:14.495Z,47.50
2019-01-08T23:23:21.936Z,41.07
2019-01-08T23:25:51.535Z,47.47
2019-01-08T23:28:31.912Z,48.13
2019-01-08T23:31:10.953Z,48.80
2019-01-08T23:34:10.532Z,48.80
2019-01-08T23:37:10.701Z,51.03
2019-01-08T23:39:38.418Z,44.80
2019-01-08T23:42:38.124Z,44.20
2019-01-08T23:45:38.296Z,41.77
2019-01-08T23:48:19.789Z,47.93
2019-01-08T23:53:57.748Z,44.73
2019-01-08T23:56:57.822Z,41.90
2019-01-08T23:59:58.050Z,39.73
